Time;durP1;ratioP1;P1;durP2;ratioP2;P2;SDS_P1;SDS_P2;PMS_P1;PMS_P2;Temp;Humidity;BMP_temperature;BMP_pressure;BME280_temperature;BME280_humidity;BME280_pressure;Samples;Min_cycle;Max_cycle;Signal;HPM_P1;HPM_P2
2023/10/25 00:01:17;;;;;;;0.70;0.70;;;9.30;99.90;;;;;;5075212;28;20042;-69
2023/10/25 00:03:43;;;;;;;0.60;0.60;;;9.20;99.90;;;;;;5075059;28;20048;-69
2023/10/25 00:06:09;;;;;;;0.60;0.60;;;9.30;99.90;;;;;;5075007;28;20083;-69
2023/10/25 00:08:34;;;;;;;8.35;0.82;;;9.20;99.90;;;;;;5074844;28;20094;-69
2023/10/25 00:11:05;;;;;;;1.15;1.05;;;9.20;99.90;;;;;;5074825;28;20036;-69
2023/10/25 00:13:31;;;;;;;0.52;0.52;;;9.20;99.90;;;;;;5073377;28;20055;-69
2023/10/25 00:15:57;;;;;;;0.60;0.60;;;9.20;99.90;;;;;;5074887;28;20119;-70
2023/10/25 00:18:24;;;;;;;0.50;0.50;;;9.20;99.90;;;;;;5074786;28;20457;-69
2023/10/25 00:20:53;;;;;;;0.50;0.50;;;9.10;99.90;;;;;;5074442;28;20036;-69
2023/10/25 00:23:19;;;;;;;0.60;0.60;;;9.10;99.90;;;;;;5074650;28;20048;-69
2023/10/25 00:25:46;;;;;;;0.82;0.82;;;9.10;99.90;;;;;;5074506;28;20472;-69
2023/10/25 00:28:12;;;;;;;0.60;0.60;;;9.40;99.90;;;;;;5075035;28;20131;-69
2023/10/25 00:30:38;;;;;;;0.70;0.70;;;9.00;99.90;;;;;;5074467;28;20078;-69
2023/10/25 00:33:04;;;;;;;0.80;0.80;;;9.00;99.90;;;;;;5074250;28;20557;-69
2023/10/25 00:35:29;;;;;;;0.63;0.63;;;9.00;99.90;;;;;;5074233;28;20123;-69
2023/10/25 00:37:55;;;;;;;0.60;0.60;;;9.00;99.90;;;;;;5074445;28;20040;-69
2023/10/25 00:40:21;;;;;;;0.60;0.60;;;8.90;99.90;;;;;;5074409;28;20045;-69
2023/10/25 00:42:46;;;;;;;0.60;0.60;;;9.10;99.90;;;;;;5074342;28;20457;-69
2023/10/25 00:45:16;;;;;;;0.60;0.60;;;8.90;99.90;;;;;;5074320;28;20041;-69
2023/10/25 00:47:43;;;;;;;0.60;0.60;;;8.90;99.90;;;;;;5074445;28;20131;-70
2023/10/25 00:50:17;;;;;;;0.50;0.50;;;8.90;99.90;;;;;;5074075;28;20044;-69
2023/10/25 00:52:43;;;;;;;0.60;0.60;;;8.80;99.90;;;;;;5073768;28;20391;-69
2023/10/25 00:55:09;;;;;;;0.60;0.60;;;8.80;99.90;;;;;;5074065;28;20040;-69
2023/10/25 00:57:35;;;;;;;0.50;0.50;;;8.80;99.90;;;;;;5074334;28;20368;-69
2023/10/25 01:00:01;;;;;;;1.40;1.10;;;8.80;99.90;;;;;;5074063;28;20033;-69
2023/10/25 01:02:27;;;;;;;0.60;0.60;;;8.80;99.90;;;;;;5073990;28;20127;-69
2023/10/25 01:04:53;;;;;;;0.90;0.80;;;8.80;99.90;;;;;;5074213;28;20123;-69
2023/10/25 01:07:19;;;;;;;0.60;0.60;;;8.80;99.90;;;;;;5073721;28;20695;-69
2023/10/25 01:09:45;;;;;;;1.33;1.25;;;8.80;99.90;;;;;;5073940;28;20041;-69
2023/10/25 01:12:10;;;;;;;0.60;0.60;;;8.80;99.90;;;;;;5074164;28;20033;-69
2023/10/25 01:14:36;;;;;;;7.18;2.05;;;8.70;99.90;;;;;;5073777;28;20047;-69
2023/10/25 01:17:02;;;;;;;0.85;0.80;;;9.30;99.90;;;;;;5074039;28;20605;-69
2023/10/25 01:19:28;;;;;;;0.80;0.80;;;8.70;99.90;;;;;;5073737;28;20063;-69
2023/10/25 01:21:53;;;;;;;0.50;0.50;;;8.70;99.90;;;;;;5073650;28;20036;-69
2023/10/25 01:24:21;;;;;;;0.55;0.55;;;8.60;99.90;;;;;;5073213;28;20040;-69
2023/10/25 01:26:46;;;;;;;1.55;1.45;;;9.00;99.90;;;;;;5073085;28;20396;-69
2023/10/25 01:29:12;;;;;;;0.60;0.60;;;8.70;99.90;;;;;;5073662;28;20055;-69
2023/10/25 01:31:37;;;;;;;0.60;0.60;;;8.60;99.90;;;;;;5073405;28;20036;-69
2023/10/25 01:34:03;;;;;;;0.60;0.60;;;8.80;99.90;;;;;;5073595;28;20051;-69
2023/10/25 01:36:29;;;;;;;0.60;0.60;;;8.60;99.90;;;;;;5073565;28;20068;-69
2023/10/25 01:38:54;;;;;;;0.60;0.60;;;8.60;99.90;;;;;;5073465;28;20083;-69
2023/10/25 01:41:20;;;;;;;1.95;1.85;;;8.60;99.90;;;;;;5072514;28;20149;-69
2023/10/25 01:43:45;;;;;;;0.60;0.60;;;8.70;99.90;;;;;;5073494;28;20036;-69
2023/10/25 01:46:11;;;;;;;0.65;0.65;;;8.70;99.90;;;;;;5073241;28;20045;-69
2023/10/25 01:48:37;;;;;;;0.70;0.70;;;8.60;99.90;;;;;;5073620;28;20076;-69
2023/10/25 01:51:06;;;;;;;0.60;0.60;;;8.60;99.90;;;;;;5073294;28;20119;-69
2023/10/25 01:53:33;;;;;;;0.60;0.60;;;8.60;99.90;;;;;;5073298;28;20123;-69
2023/10/25 01:55:59;;;;;;;0.80;0.80;;;8.50;99.90;;;;;;5072996;28;20481;-69
2023/10/25 01:58:25;;;;;;;0.60;0.60;;;8.50;99.90;;;;;;5073340;28;20052;-69
2023/10/25 02:00:50;;;;;;;0.65;0.65;;;9.10;99.90;;;;;;5073344;28;20048;-69
2023/10/25 02:03:16;;;;;;;0.60;0.60;;;8.50;99.90;;;;;;5073305;28;20040;-69
2023/10/25 02:05:41;;;;;;;0.65;0.65;;;8.50;99.90;;;;;;5071973;28;20048;-69
2023/10/25 02:08:07;;;;;;;0.60;0.60;;;8.50;99.90;;;;;;5073125;28;20089;-69
2023/10/25 02:10:33;;;;;;;0.60;0.60;;;9.20;99.90;;;;;;5073119;28;20043;-69
2023/10/25 02:12:59;;;;;;;0.60;0.60;;;8.50;99.90;;;;;;5073282;28;20047;-70
2023/10/25 02:15:25;;;;;;;0.60;0.60;;;8.40;99.90;;;;;;5073480;28;20271;-69
2023/10/25 02:17:51;;;;;;;0.60;0.60;;;8.50;99.90;;;;;;5073246;28;20037;-69
2023/10/25 02:20:17;;;;;;;0.60;0.60;;;8.40;99.90;;;;;;5073153;28;20464;-69
2023/10/25 02:22:42;;;;;;;0.60;0.60;;;8.50;99.90;;;;;;5073000;28;20048;-69
2023/10/25 02:25:08;;;;;;;0.70;0.70;;;8.90;99.90;;;;;;5073082;28;20068;-68
2023/10/25 02:27:33;;;;;;;0.60;0.60;;;9.10;99.90;;;;;;5073073;28;20036;-69
2023/10/25 02:29:59;;;;;;;0.60;0.60;;;8.40;99.90;;;;;;5073016;28;20056;-69
2023/10/25 02:32:25;;;;;;;0.60;0.60;;;8.40;99.90;;;;;;5072923;28;20040;-69
2023/10/25 02:34:50;;;;;;;0.60;0.60;;;8.40;99.90;;;;;;5072968;28;20483;-69
2023/10/25 02:37:17;;;;;;;0.93;0.82;;;8.40;99.90;;;;;;5075085;28;20047;-69
2023/10/25 02:39:42;;;;;;;0.65;0.65;;;8.40;99.90;;;;;;5076733;28;20041;-69
2023/10/25 02:42:08;;;;;;;0.73;0.73;;;8.70;99.90;;;;;;5076419;28;20044;-69
2023/10/25 02:44:34;;;;;;;2.83;2.63;;;8.70;99.90;;;;;;5076644;28;20119;-69
2023/10/25 02:46:59;;;;;;;0.60;0.60;;;8.30;99.90;;;;;;5076260;28;20040;-69
2023/10/25 02:49:25;;;;;;;0.60;0.60;;;8.30;99.90;;;;;;5076512;28;20036;-69
2023/10/25 02:51:51;;;;;;;0.70;0.70;;;8.30;99.90;;;;;;5076360;28;20445;-69
2023/10/25 02:54:17;;;;;;;0.60;0.60;;;8.80;99.90;;;;;;5076889;28;20400;-69
2023/10/25 02:56:42;;;;;;;0.60;0.60;;;8.30;99.90;;;;;;5076295;28;20043;-69
2023/10/25 02:59:08;;;;;;;0.70;0.70;;;8.30;99.90;;;;;;5076450;28;20040;-69
2023/10/25 03:01:34;;;;;;;0.98;0.93;;;8.30;99.90;;;;;;5076277;28;20531;-70
2023/10/25 03:03:59;;;;;;;0.63;0.63;;;8.20;99.90;;;;;;5076299;28;20040;-69
2023/10/25 03:06:25;;;;;;;0.80;0.80;;;8.30;99.90;;;;;;5076118;28;20124;-69
2023/10/25 03:08:50;;;;;;;0.60;0.60;;;8.20;99.90;;;;;;5075748;28;20102;-69
2023/10/25 03:11:16;;;;;;;0.95;0.95;;;8.20;99.90;;;;;;5076062;28;20040;-69
2023/10/25 03:13:42;;;;;;;0.63;0.63;;;8.20;99.90;;;;;;5075843;28;20044;-69
2023/10/25 03:16:08;;;;;;;0.70;0.70;;;8.20;99.90;;;;;;5074819;28;20048;-69
2023/10/25 03:18:34;;;;;;;0.60;0.60;;;9.00;99.90;;;;;;5076029;28;20049;-69
2023/10/25 03:21:03;;;;;;;0.70;0.70;;;8.90;99.90;;;;;;5075942;28;20047;-69
2023/10/25 03:23:30;;;;;;;0.60;0.60;;;8.20;99.90;;;;;;5075775;28;20520;-69
2023/10/25 03:26:03;;;;;;;0.70;0.70;;;8.20;99.90;;;;;;5076266;28;20059;-69
2023/10/25 03:28:29;;;;;;;0.60;0.60;;;8.20;99.90;;;;;;5075857;28;20089;-69
2023/10/25 03:30:54;;;;;;;0.70;0.70;;;8.60;99.90;;;;;;5075895;28;20415;-69
2023/10/25 03:33:20;;;;;;;0.85;0.85;;;8.80;99.90;;;;;;5075682;28;20040;-69
2023/10/25 03:35:54;;;;;;;1.00;0.90;;;8.10;99.90;;;;;;5075682;28;20037;-69
2023/10/25 03:38:20;;;;;;;0.60;0.60;;;8.10;99.90;;;;;;5075571;28;20040;-69
2023/10/25 03:40:46;;;;;;;0.60;0.60;;;8.40;99.90;;;;;;5075555;28;20063;-69
2023/10/25 03:43:12;;;;;;;0.60;0.60;;;8.10;99.90;;;;;;5075536;28;20485;-69
2023/10/25 03:45:38;;;;;;;0.65;0.65;;;8.00;99.90;;;;;;5075492;28;20153;-69
2023/10/25 03:48:03;;;;;;;0.82;0.82;;;8.00;99.90;;;;;;5074602;28;20035;-69
2023/10/25 03:50:29;;;;;;;0.70;0.70;;;8.00;99.90;;;;;;5075343;28;20044;-70
2023/10/25 03:52:55;;;;;;;0.68;0.68;;;8.30;99.90;;;;;;5075407;28;20047;-68
2023/10/25 03:55:21;;;;;;;1.00;1.00;;;8.00;99.90;;;;;;5075357;28;20036;-68
2023/10/25 03:57:47;;;;;;;0.60;0.60;;;7.90;99.90;;;;;;5075260;28;20063;-69
2023/10/25 04:00:13;;;;;;;0.70;0.70;;;7.90;99.90;;;;;;5075273;28;20055;-68
2023/10/25 04:02:40;;;;;;;0.70;0.70;;;7.90;99.90;;;;;;5075180;28;20372;-70
2023/10/25 04:05:06;;;;;;;0.60;0.60;;;7.90;99.90;;;;;;5075022;28;20036;-70
2023/10/25 04:07:32;;;;;;;0.70;0.70;;;7.90;99.90;;;;;;5074697;28;20047;-69
2023/10/25 04:09:57;;;;;;;0.70;0.70;;;7.90;99.90;;;;;;5075551;28;20119;-69
2023/10/25 04:12:23;;;;;;;0.70;0.70;;;7.90;99.90;;;;;;5074772;28;20499;-70
2023/10/25 04:14:48;;;;;;;0.90;0.80;;;8.20;99.90;;;;;;5073846;28;20085;-69
2023/10/25 04:17:14;;;;;;;1.15;1.13;;;7.80;99.90;;;;;;5074897;28;20085;-69
2023/10/25 04:19:40;;;;;;;0.82;0.82;;;7.80;99.90;;;;;;5074706;28;20452;-68
2023/10/25 04:22:06;;;;;;;0.90;0.90;;;7.80;99.90;;;;;;5074705;28;20048;-69
2023/10/25 04:24:33;;;;;;;0.70;0.70;;;7.80;99.90;;;;;;5073452;28;20036;-69
2023/10/25 04:27:01;;;;;;;0.60;0.60;;;7.80;99.90;;;;;;5074417;28;20457;-68
2023/10/25 04:29:26;;;;;;;0.68;0.68;;;7.80;99.90;;;;;;5074618;28;20047;-70
2023/10/25 04:31:52;;;;;;;0.60;0.60;;;7.70;99.90;;;;;;5074506;28;20414;-70
2023/10/25 04:34:18;;;;;;;0.70;0.70;;;7.70;99.90;;;;;;5074408;28;20040;-69
2023/10/25 04:36:43;;;;;;;0.73;0.73;;;8.30;99.90;;;;;;5074102;28;20041;-71
2023/10/25 04:39:09;;;;;;;0.60;0.60;;;7.60;99.90;;;;;;5074408;28;20102;-69
2023/10/25 04:41:35;;;;;;;0.63;0.63;;;7.60;99.90;;;;;;5074688;28;20040;-71
2023/10/25 04:44:01;;;;;;;0.60;0.60;;;7.60;99.90;;;;;;5074095;28;20044;-70
2023/10/25 04:46:26;;;;;;;0.63;0.63;;;7.60;99.90;;;;;;5074445;28;20048;-70
2023/10/25 04:48:52;;;;;;;0.80;0.80;;;7.60;99.90;;;;;;5074018;28;20063;-70
2023/10/25 04:51:18;;;;;;;0.70;0.70;;;7.60;99.90;;;;;;5074130;28;20044;-69
2023/10/25 04:53:46;;;;;;;0.70;0.70;;;7.60;99.90;;;;;;5074212;28;20358;-68
2023/10/25 04:56:11;;;;;;;0.70;0.70;;;7.50;99.90;;;;;;5074124;28;20049;-70
2023/10/25 04:58:37;;;;;;;0.60;0.60;;;7.60;99.90;;;;;;5074431;28;20472;-70
2023/10/25 05:01:15;;;;;;;0.70;0.70;;;7.50;99.90;;;;;;5073967;28;20029;-69
2023/10/25 05:03:44;;;;;;;0.70;0.70;;;7.50;99.90;;;;;;5073704;28;20044;-69
2023/10/25 05:06:10;;;;;;;0.80;0.80;;;7.50;99.90;;;;;;5072654;28;20036;-68
2023/10/25 05:08:36;;;;;;;0.70;0.70;;;7.50;99.90;;;;;;5073185;28;20067;-70
2023/10/25 05:11:05;;;;;;;0.70;0.70;;;7.50;99.90;;;;;;5073667;28;20044;-70
2023/10/25 05:13:31;;;;;;;0.77;0.70;;;7.50;99.90;;;;;;5073369;28;20052;-70
2023/10/25 05:15:57;;;;;;;0.70;0.70;;;7.50;99.90;;;;;;5073303;28;20472;-69
2023/10/25 05:18:23;;;;;;;0.80;0.80;;;7.50;99.90;;;;;;5073532;28;20032;-70
2023/10/25 05:20:58;;;;;;;0.63;0.63;;;7.50;99.90;;;;;;5073239;28;20072;-69
2023/10/25 05:23:30;;;;;;;0.60;0.60;;;7.50;99.90;;;;;;5073507;28;20074;-69
2023/10/25 05:25:58;;;;;;;0.65;0.65;;;7.40;99.90;;;;;;5073568;28;20095;-69
2023/10/25 05:28:24;;;;;;;0.70;0.70;;;7.40;99.90;;;;;;5073215;28;20094;-69
2023/10/25 05:30:53;;;;;;;0.70;0.70;;;7.40;99.90;;;;;;5072946;28;20047;-70
2023/10/25 05:33:22;;;;;;;0.90;0.90;;;7.40;99.90;;;;;;5073318;28;20040;-69
2023/10/25 05:35:48;;;;;;;0.60;0.60;;;7.40;99.90;;;;;;5073611;28;20040;-69
2023/10/25 05:38:14;;;;;;;0.82;0.82;;;7.40;99.90;;;;;;5073345;28;20553;-70
2023/10/25 05:40:41;;;;;;;0.60;0.60;;;7.40;99.90;;;;;;5073262;28;20369;-69
2023/10/25 05:43:13;;;;;;;0.77;0.77;;;7.40;99.90;;;;;;5072009;28;20124;-70
2023/10/25 05:45:39;;;;;;;0.70;0.70;;;7.30;99.90;;;;;;5072988;28;20055;-70
2023/10/25 05:48:10;;;;;;;1.33;1.23;;;7.50;99.90;;;;;;5073297;28;20454;-70
2023/10/25 05:50:36;;;;;;;0.70;0.70;;;7.30;99.90;;;;;;5072994;28;20071;-70
2023/10/25 05:53:02;;;;;;;0.70;0.70;;;7.30;99.90;;;;;;5071525;28;20117;-70
2023/10/25 05:55:28;;;;;;;0.60;0.60;;;7.30;99.90;;;;;;5073022;28;20040;-71
2023/10/25 05:57:54;;;;;;;0.70;0.70;;;7.30;99.90;;;;;;5071618;28;20049;-70
2023/10/25 06:00:20;;;;;;;0.90;0.90;;;7.30;99.90;;;;;;5073149;28;20037;-69
2023/10/25 06:02:49;;;;;;;0.70;0.70;;;7.30;99.90;;;;;;5073150;28;20055;-68
2023/10/25 06:05:15;;;;;;;0.70;0.70;;;7.20;99.90;;;;;;5071734;28;20048;-68
2023/10/25 06:07:42;;;;;;;0.70;0.70;;;7.20;99.90;;;;;;5072913;28;20055;-70
2023/10/25 06:10:08;;;;;;;0.70;0.70;;;7.20;99.90;;;;;;5072907;28;20111;-69
2023/10/25 06:12:34;;;;;;;1.33;1.23;;;7.20;99.90;;;;;;5075315;28;20036;-70
2023/10/25 06:15:00;;;;;;;1.08;0.98;;;7.20;99.90;;;;;;5075576;28;20039;-69
2023/10/25 06:17:26;;;;;;;0.70;0.70;;;7.20;99.90;;;;;;5077073;28;20072;-70
2023/10/25 06:19:53;;;;;;;0.70;0.70;;;8.00;99.90;;;;;;5076918;28;20459;-68
2023/10/25 06:22:20;;;;;;;0.77;0.77;;;7.20;99.90;;;;;;5076904;28;20086;-69
2023/10/25 06:24:45;;;;;;;0.70;0.70;;;7.20;99.90;;;;;;5076396;28;20456;-69
2023/10/25 06:27:11;;;;;;;0.70;0.70;;;7.20;99.90;;;;;;5075402;28;20123;-70
2023/10/25 06:29:36;;;;;;;0.90;0.90;;;7.20;99.90;;;;;;5076668;28;20617;-70
2023/10/25 06:32:02;;;;;;;0.70;0.70;;;7.40;99.90;;;;;;5076882;28;20066;-73
2023/10/25 06:34:28;;;;;;;0.60;0.60;;;7.20;99.90;;;;;;5075401;28;20044;-69
2023/10/25 06:36:54;;;;;;;0.80;0.80;;;7.20;99.90;;;;;;5076704;28;20047;-68
2023/10/25 06:39:19;;;;;;;0.70;0.70;;;7.20;99.90;;;;;;5076312;28;20067;-68
2023/10/25 06:41:45;;;;;;;0.80;0.80;;;7.20;99.90;;;;;;5074195;28;20039;-70
2023/10/25 06:44:11;;;;;;;0.93;0.70;;;7.20;99.90;;;;;;5076231;28;20123;-70
2023/10/25 06:46:37;;;;;;;0.70;0.70;;;7.20;99.90;;;;;;5076788;28;20065;-70
2023/10/25 06:49:03;;;;;;;0.70;0.70;;;7.20;99.90;;;;;;5076243;28;20080;-70
2023/10/25 06:51:29;;;;;;;0.70;0.70;;;7.20;99.90;;;;;;5076358;28;20079;-70
2023/10/25 06:53:58;;;;;;;0.60;0.60;;;7.20;99.90;;;;;;5075996;28;20125;-70
2023/10/25 06:56:24;;;;;;;0.70;0.70;;;7.20;99.90;;;;;;5076216;28;20456;-71
2023/10/25 06:58:52;;;;;;;1.92;1.75;;;7.30;99.90;;;;;;5075861;28;20468;-70
2023/10/25 07:01:20;;;;;;;0.60;0.60;;;7.30;99.90;;;;;;5076094;28;20040;-70
2023/10/25 07:03:48;;;;;;;0.60;0.60;;;7.30;99.90;;;;;;5076114;28;20044;-70
2023/10/25 07:06:16;;;;;;;0.60;0.60;;;7.30;99.90;;;;;;5075743;28;20040;-70
2023/10/25 07:08:42;;;;;;;0.80;0.80;;;7.30;99.90;;;;;;5075982;28;20449;-73
2023/10/25 07:11:07;;;;;;;0.80;0.80;;;7.40;99.90;;;;;;5074712;28;20380;-72
2023/10/25 07:13:33;;;;;;;0.80;0.80;;;7.40;99.90;;;;;;5076056;28;20048;-73
2023/10/25 07:15:59;;;;;;;0.90;0.90;;;7.40;99.90;;;;;;5075683;28;20040;-72
2023/10/25 07:18:25;;;;;;;0.70;0.70;;;7.40;99.90;;;;;;5075952;28;20048;-72
2023/10/25 07:20:51;;;;;;;0.70;0.70;;;8.20;99.90;;;;;;5074599;28;20047;-72
2023/10/25 07:23:17;;;;;;;0.70;0.70;;;7.50;99.90;;;;;;5073396;28;20048;-72
2023/10/25 07:25:43;;;;;;;0.68;0.68;;;7.50;99.90;;;;;;5075455;28;20044;-72
2023/10/25 07:28:09;;;;;;;0.70;0.70;;;7.60;99.90;;;;;;5075381;28;20056;-73
2023/10/25 07:30:35;;;;;;;0.80;0.80;;;7.70;99.90;;;;;;5075539;28;20040;-73
2023/10/25 07:33:01;;;;;;;0.88;0.88;;;7.70;99.90;;;;;;5075476;28;20104;-71
2023/10/25 07:35:26;;;;;;;0.80;0.80;;;7.70;99.90;;;;;;5075415;28;20467;-73
2023/10/25 07:37:52;;;;;;;0.70;0.70;;;8.00;99.90;;;;;;5075106;28;20131;-74
2023/10/25 07:40:18;;;;;;;0.70;0.70;;;7.80;99.90;;;;;;5075280;28;20036;-73
2023/10/25 07:42:43;;;;;;;0.70;0.70;;;7.80;99.90;;;;;;5075311;28;20044;-73
2023/10/25 07:45:09;;;;;;;2.80;1.13;;;7.80;99.90;;;;;;5074745;28;20032;-71
2023/10/25 07:47:35;;;;;;;2.95;1.33;;;8.50;99.90;;;;;;5075282;28;20036;-70
2023/10/25 07:50:01;;;;;;;0.80;0.80;;;7.90;99.90;;;;;;5075269;28;20480;-70
2023/10/25 07:52:29;;;;;;;0.70;0.70;;;7.90;99.90;;;;;;5075136;28;20402;-71
2023/10/25 07:54:55;;;;;;;0.70;0.70;;;7.90;99.90;;;;;;5075016;28;20041;-71
2023/10/25 07:57:21;;;;;;;0.90;0.90;;;8.10;99.90;;;;;;5075031;28;20039;-73
2023/10/25 07:59:46;;;;;;;1.38;1.27;;;8.00;99.90;;;;;;5075218;28;20094;-72
2023/10/25 08:02:12;;;;;;;0.70;0.70;;;8.00;99.90;;;;;;5075189;28;20476;-71
2023/10/25 08:04:38;;;;;;;0.82;0.73;;;8.00;99.90;;;;;;5074928;28;20098;-78
2023/10/25 08:07:03;;;;;;;0.80;0.80;;;8.50;99.90;;;;;;5074075;28;20040;-74
2023/10/25 08:09:30;;;;;;;0.77;0.77;;;8.10;99.90;;;;;;5072360;28;20442;-74
2023/10/25 08:11:56;;;;;;;0.90;0.90;;;8.10;99.90;;;;;;5074432;28;20089;-78
2023/10/25 08:14:22;;;;;;;0.80;0.80;;;8.80;99.90;;;;;;5074559;28;20040;-73
2023/10/25 08:16:47;;;;;;;0.70;0.70;;;8.20;99.90;;;;;;5074763;28;20130;-73
2023/10/25 08:19:15;;;;;;;0.90;0.90;;;8.20;99.90;;;;;;5072855;28;20430;-71
2023/10/25 08:21:40;;;;;;;0.70;0.70;;;8.20;99.90;;;;;;5074486;28;20036;-73
2023/10/25 08:24:07;;;;;;;1.45;1.35;;;8.30;99.90;;;;;;5075022;28;20128;-75
2023/10/25 08:26:39;;;;;;;0.93;0.90;;;8.30;99.90;;;;;;5073624;28;20119;-75
2023/10/25 08:29:06;;;;;;;0.95;0.95;;;8.30;99.90;;;;;;5074772;28;20044;-77
2023/10/25 08:31:32;;;;;;;0.67;0.67;;;8.40;99.90;;;;;;5074640;28;20464;-72
2023/10/25 08:33:58;;;;;;;1.37;0.90;;;8.50;99.90;;;;;;5074511;28;20040;-74
2023/10/25 08:36:24;;;;;;;0.80;0.80;;;8.50;99.90;;;;;;5074366;28;20040;-71
2023/10/25 08:38:50;;;;;;;0.80;0.80;;;8.60;99.90;;;;;;5074521;28;20036;-72
2023/10/25 08:41:17;;;;;;;4.30;2.25;;;8.60;99.90;;;;;;5073113;28;20040;-71
2023/10/25 08:43:43;;;;;;;0.80;0.80;;;8.60;99.90;;;;;;5074657;28;20043;-72
2023/10/25 08:46:10;;;;;;;0.70;0.70;;;9.40;99.90;;;;;;5073969;28;20464;-71
2023/10/25 08:48:35;;;;;;;0.70;0.70;;;8.70;99.90;;;;;;5074155;28;20040;-69
2023/10/25 08:51:03;;;;;;;0.88;0.80;;;9.00;99.90;;;;;;5074114;28;20049;-72
2023/10/25 08:53:29;;;;;;;0.70;0.70;;;8.80;99.90;;;;;;5074199;28;20056;-68
2023/10/25 08:55:57;;;;;;;1.23;1.13;;;9.10;99.90;;;;;;5073693;28;20512;-68
2023/10/25 08:58:26;;;;;;;0.70;0.70;;;9.00;99.90;;;;;;5074115;28;20048;-69
2023/10/25 09:00:54;;;;;;;0.70;0.70;;;9.00;99.90;;;;;;5073710;28;20469;-69
2023/10/25 09:03:32;;;;;;;0.70;0.70;;;9.40;99.90;;;;;;5073699;28;20161;-69
2023/10/25 09:06:05;;;;;;;0.80;0.80;;;9.10;99.90;;;;;;5073910;28;20079;-69
2023/10/25 09:08:32;;;;;;;0.60;0.60;;;9.20;99.90;;;;;;5074166;28;20117;-68
2023/10/25 09:11:11;;;;;;;0.70;0.70;;;9.20;99.90;;;;;;5074168;28;20039;-68
2023/10/25 09:13:41;;;;;;;0.70;0.70;;;9.30;99.90;;;;;;5073867;28;20050;-69
2023/10/25 09:16:12;;;;;;;0.70;0.70;;;9.50;99.90;;;;;;5073431;28;20480;-69
2023/10/25 09:18:39;;;;;;;0.60;0.60;;;9.50;99.90;;;;;;5073883;28;20067;-68
2023/10/25 09:21:06;;;;;;;0.50;0.50;;;10.10;99.90;;;;;;5073931;28;20044;-69
2023/10/25 09:23:34;;;;;;;0.70;0.70;;;9.80;99.90;;;;;;5073701;28;20435;-69
2023/10/25 09:26:04;;;;;;;0.60;0.60;;;9.90;99.90;;;;;;5073911;28;20037;-69
2023/10/25 09:28:30;;;;;;;2.25;1.05;;;10.60;99.90;;;;;;5073578;28;20040;-69
2023/10/25 09:31:00;;;;;;;1.00;0.93;;;10.30;99.90;;;;;;5073473;28;20560;-69
2023/10/25 09:33:30;;;;;;;1.40;0.80;;;10.40;99.90;;;;;;5073499;28;20514;-68
2023/10/25 09:35:57;;;;;;;0.80;0.80;;;10.50;99.90;;;;;;5074107;28;20040;-69
2023/10/25 09:38:24;;;;;;;1.10;0.60;;;10.60;99.90;;;;;;5073541;28;20103;-68
2023/10/25 09:40:50;;;;;;;0.50;0.50;;;10.60;99.90;;;;;;5073488;28;20044;-68
2023/10/25 09:43:20;;;;;;;1.00;0.95;;;10.60;99.90;;;;;;5073505;28;20079;-68
2023/10/25 09:45:53;;;;;;;0.98;0.88;;;10.60;99.90;;;;;;5072787;28;20040;-69
2023/10/25 09:48:20;;;;;;;0.80;0.80;;;10.60;99.90;;;;;;5073422;28;20048;-69
2023/10/25 09:51:12;;;;;;;0.60;0.60;;;10.60;99.90;;;;;;5073668;28;20040;-69
2023/10/25 09:53:44;;;;;;;0.60;0.60;;;10.60;99.90;;;;;;5073418;28;20120;-69
2023/10/25 09:56:10;;;;;;;0.50;0.50;;;10.60;99.90;;;;;;5073462;28;20134;-69
2023/10/25 09:58:36;;;;;;;0.82;0.82;;;10.90;99.90;;;;;;5073272;28;20055;-69
2023/10/25 10:01:03;;;;;;;0.60;0.60;;;10.70;99.90;;;;;;5073266;28;20045;-69
2023/10/25 10:03:49;;;;;;;;;;;10.80;99.90;;;;;;5073696;28;20040;-69
2023/10/25 10:06:42;;;;;;;0.50;0.50;;;10.70;99.90;;;;;;5072933;28;20356;-69
2023/10/25 10:09:40;;;;;;;0.50;0.50;;;10.70;99.90;;;;;;5073498;28;20060;-69
2023/10/25 10:12:07;;;;;;;0.60;0.60;;;10.70;99.90;;;;;;5073153;28;20037;-69
2023/10/25 10:14:39;;;;;;;0.60;0.60;;;10.80;99.90;;;;;;5073132;28;20044;-69
2023/10/25 10:17:14;;;;;;;0.77;0.77;;;10.80;99.90;;;;;;5073108;28;20123;-68
2023/10/25 10:19:46;;;;;;;0.50;0.50;;;10.90;99.90;;;;;;5073142;28;20063;-68
2023/10/25 10:22:16;;;;;;;0.50;0.50;;;11.40;99.90;;;;;;5073052;28;20091;-68
2023/10/25 10:24:53;;;;;;;0.63;0.63;;;10.70;99.90;;;;;;5073154;28;20147;-68
2023/10/25 10:27:19;;;;;;;0.70;0.70;;;10.80;99.90;;;;;;5073279;28;20410;-69
2023/10/25 10:29:46;;;;;;;0.60;0.60;;;10.90;99.90;;;;;;5073036;28;20040;-69
2023/10/25 10:32:12;;;;;;;;;;;10.90;99.90;;;;;;5073419;28;20185;-69
2023/10/25 10:34:53;;;;;;;0.50;0.50;;;10.90;99.90;;;;;;5072997;28;20010;-69
2023/10/25 10:37:29;;;;;;;1.45;1.35;;;10.90;99.90;;;;;;5073174;28;20048;-69
2023/10/25 10:39:57;;;;;;;0.98;0.70;;;11.00;99.90;;;;;;5073013;28;20043;-69
2023/10/25 10:42:26;;;;;;;0.88;0.88;;;11.20;99.90;;;;;;5072726;28;20063;-69
2023/10/25 10:44:52;;;;;;;0.50;0.50;;;11.10;99.90;;;;;;5072833;28;20062;-69
2023/10/25 10:47:22;;;;;;;0.68;0.68;;;11.10;99.90;;;;;;5071641;28;20131;-69
2023/10/25 10:49:56;;;;;;;0.50;0.50;;;11.20;99.90;;;;;;5073017;28;20371;-69
2023/10/25 10:52:22;;;;;;;0.50;0.50;;;11.30;99.90;;;;;;5072762;28;20040;-69
2023/10/25 10:54:48;;;;;;;0.50;0.50;;;11.20;99.90;;;;;;5072703;28;20124;-69
2023/10/25 10:57:16;;;;;;;0.50;0.50;;;11.30;99.90;;;;;;5073340;28;20411;-68
2023/10/25 10:59:49;;;;;;;0.60;0.60;;;11.30;99.90;;;;;;5076343;28;20040;-69
2023/10/25 11:02:14;;;;;;;0.50;0.50;;;11.30;99.90;;;;;;5076243;28;20044;-68
2023/10/25 11:04:44;;;;;;;0.50;0.50;;;11.30;99.90;;;;;;5076466;28;20136;-69
2023/10/25 11:07:10;;;;;;;0.75;0.75;;;11.40;99.90;;;;;;5075930;28;20059;-69
2023/10/25 11:09:35;;;;;;;0.60;0.60;;;11.30;99.90;;;;;;5076164;28;20041;-69
2023/10/25 11:12:10;;;;;;;0.60;0.60;;;11.40;99.90;;;;;;5076096;28;20041;-69
2023/10/25 11:14:42;;;;;;;0.52;0.52;;;11.40;99.90;;;;;;5076102;28;20044;-69
2023/10/25 11:17:08;;;;;;;0.60;0.60;;;11.40;99.90;;;;;;5076063;28;20043;-69
2023/10/25 11:19:33;;;;;;;0.52;0.52;;;11.40;99.90;;;;;;5076033;28;20131;-69
2023/10/25 11:22:00;;;;;;;0.60;0.60;;;11.40;99.90;;;;;;5058164;28;20045;-69
2023/10/25 11:24:26;;;;;;;0.50;0.50;;;11.40;99.90;;;;;;5075925;28;20044;-68
2023/10/25 11:26:55;;;;;;;0.52;0.52;;;12.20;99.90;;;;;;5075927;28;20098;-71
2023/10/25 11:29:22;;;;;;;0.60;0.60;;;11.70;99.90;;;;;;5075887;28;20040;-68
2023/10/25 11:31:49;;;;;;;0.60;0.60;;;11.40;99.90;;;;;;5075908;28;20039;-68
2023/10/25 11:34:22;;;;;;;0.60;0.60;;;11.50;99.90;;;;;;5075766;28;20071;-69
2023/10/25 11:36:48;;;;;;;0.60;0.60;;;11.40;99.90;;;;;;5075673;28;20040;-68
2023/10/25 11:39:17;;;;;;;0.63;0.63;;;11.40;99.90;;;;;;5075660;28;20383;-69
2023/10/25 11:41:43;;;;;;;4.80;1.92;;;11.30;99.90;;;;;;5075415;28;20120;-69
2023/10/25 11:44:09;;;;;;;0.60;0.60;;;11.30;99.90;;;;;;5075537;28;20487;-69
2023/10/25 11:46:40;;;;;;;2.60;1.60;;;11.30;99.90;;;;;;5075520;28;20052;-69
2023/10/25 11:49:06;;;;;;;1.27;1.20;;;11.20;99.90;;;;;;5075406;28;20048;-70
2023/10/25 11:51:34;;;;;;;0.60;0.60;;;11.30;99.90;;;;;;5075085;28;20523;-69
2023/10/25 11:54:01;;;;;;;1.67;1.40;;;11.20;99.90;;;;;;5075318;28;20345;-69
2023/10/25 11:56:27;;;;;;;0.70;0.70;;;11.20;99.90;;;;;;5075353;28;20085;-69
2023/10/25 11:58:53;;;;;;;0.60;0.60;;;11.20;99.90;;;;;;5075297;28;20040;-69
2023/10/25 12:01:19;;;;;;;0.60;0.60;;;11.20;99.90;;;;;;5075330;28;20048;-69
2023/10/25 12:03:45;;;;;;;0.60;0.60;;;11.10;99.90;;;;;;5075216;28;20035;-69
2023/10/25 12:06:12;;;;;;;0.70;0.70;;;11.10;99.90;;;;;;5075480;28;20044;-69
2023/10/25 12:08:40;;;;;;;0.60;0.60;;;11.10;99.90;;;;;;5074801;28;20052;-69
2023/10/25 12:11:12;;;;;;;0.50;0.50;;;11.10;99.90;;;;;;5074382;28;20540;-70
2023/10/25 12:13:41;;;;;;;0.60;0.60;;;11.10;99.90;;;;;;5075346;28;20044;-69
2023/10/25 12:16:08;;;;;;;0.60;0.60;;;11.10;99.90;;;;;;5074831;28;20033;-69
2023/10/25 12:18:36;;;;;;;0.82;0.82;;;11.50;99.90;;;;;;5074758;28;20045;-69
2023/10/25 12:21:06;;;;;;;0.60;0.60;;;11.10;99.90;;;;;;5074816;28;20036;-69
2023/10/25 12:23:32;;;;;;;0.50;0.50;;;11.60;99.90;;;;;;5075090;28;20452;-69
2023/10/25 12:25:58;;;;;;;0.68;0.68;;;11.10;99.90;;;;;;5074768;28;20041;-69
2023/10/25 12:28:24;;;;;;;0.60;0.60;;;11.10;99.90;;;;;;5074904;28;20059;-69
2023/10/25 12:30:50;;;;;;;0.85;0.85;;;11.10;99.90;;;;;;5074538;28;20044;-69
2023/10/25 12:33:16;;;;;;;1.17;1.05;;;11.10;99.90;;;;;;5074582;28;20036;-69
2023/10/25 12:35:42;;;;;;;0.60;0.60;;;11.10;99.90;;;;;;5074522;28;20071;-69
2023/10/25 12:38:08;;;;;;;0.60;0.60;;;11.10;99.90;;;;;;5074992;28;20041;-69
2023/10/25 12:40:34;;;;;;;0.50;0.50;;;11.20;99.90;;;;;;5074246;28;20033;-69
2023/10/25 12:42:59;;;;;;;0.60;0.60;;;11.20;99.90;;;;;;5074404;28;20353;-69
2023/10/25 12:45:25;;;;;;;0.57;0.57;;;11.30;99.90;;;;;;5074430;28;20144;-69
2023/10/25 12:47:51;;;;;;;1.23;1.17;;;12.20;99.90;;;;;;5074219;28;20044;-69
2023/10/25 12:50:17;;;;;;;0.60;0.60;;;11.30;99.90;;;;;;5074115;28;20404;-69
2023/10/25 12:52:43;;;;;;;0.60;0.60;;;11.70;99.90;;;;;;5074153;28;20036;-69
2023/10/25 12:55:11;;;;;;;0.52;0.52;;;11.30;99.90;;;;;;5074124;28;20036;-69